PPDPC SBRJ-SBJD
Flight info
| Callsign | PPDPC |
|---|---|
| Flight time | 0h 56m |
| Altitude | 26000 |
| Route | SIDUR UZ10 EDMUS |
| Aircraft | PC12/L-SDFGRWY/S |
Departure
| Time | 2026-04-23 01:18 |
|---|---|
| Airport | Santos Dumont Airport (SBRJ) |
Arrival
| Time | 2026-04-23 02:15 |
|---|---|
| Airport | Comte. Rolim Adolfo Amaro–Jundiaí State Airport (SBJD) |
| Time | Latitude | Longitude | Altitude | Speed | Heading |
|---|---|---|---|---|---|
| 2026-04-23 01:18 | -22.89332 | -43.35589 | 14434 ft | 198 kts | 310° |
| 2026-04-23 01:18 | -22.88418 | -43.36703 | 14761 ft | 197 kts | 309° |
| 2026-04-23 01:18 | -22.87509 | -43.37821 | 15078 ft | 198 kts | 309° |
| 2026-04-23 01:19 | -22.86598 | -43.38941 | 15401 ft | 198 kts | 309° |
| 2026-04-23 01:19 | -22.85729 | -43.40089 | 15701 ft | 196 kts | 295° |
| 2026-04-23 01:19 | -22.85529 | -43.41500 | 16030 ft | 191 kts | 256° |
| 2026-04-23 01:19 | -22.85984 | -43.42845 | 16292 ft | 192 kts | 249° |
| 2026-04-23 01:20 | -22.86348 | -43.44240 | 16614 ft | 192 kts | 256° |
| 2026-04-23 01:20 | -22.86599 | -43.45666 | 16931 ft | 193 kts | 259° |
| 2026-04-23 01:20 | -22.86834 | -43.47099 | 17242 ft | 193 kts | 258° |
| 2026-04-23 01:20 | -22.87080 | -43.48530 | 17558 ft | 193 kts | 258° |
| 2026-04-23 01:21 | -22.87330 | -43.49963 | 17864 ft | 194 kts | 258° |
| 2026-04-23 01:21 | -22.87580 | -43.51399 | 18178 ft | 194 kts | 259° |
| 2026-04-23 01:21 | -22.87827 | -43.52819 | 18475 ft | 194 kts | 259° |
| 2026-04-23 01:21 | -22.88080 | -43.54279 | 18734 ft | 195 kts | 258° |
| 2026-04-23 01:22 | -22.88327 | -43.55706 | 18993 ft | 195 kts | 258° |
| 2026-04-23 01:22 | -22.88578 | -43.57153 | 19248 ft | 196 kts | 258° |
| 2026-04-23 01:22 | -22.88830 | -43.58605 | 19527 ft | 196 kts | 258° |
| 2026-04-23 01:22 | -22.89082 | -43.60057 | 19810 ft | 196 kts | 258° |
| 2026-04-23 01:23 | -22.89334 | -43.61517 | 20088 ft | 197 kts | 258° |
| 2026-04-23 01:23 | -22.89586 | -43.62974 | 20360 ft | 197 kts | 258° |
| 2026-04-23 01:23 | -22.89839 | -43.64438 | 20636 ft | 198 kts | 257° |
| 2026-04-23 01:23 | -22.90093 | -43.65906 | 20920 ft | 198 kts | 257° |
| 2026-04-23 01:24 | -22.90347 | -43.67378 | 21202 ft | 199 kts | 257° |
| 2026-04-23 01:24 | -22.90602 | -43.68854 | 21478 ft | 199 kts | 257° |
| 2026-04-23 01:24 | -22.90856 | -43.70328 | 21760 ft | 199 kts | 257° |
| 2026-04-23 01:24 | -22.91112 | -43.71811 | 22038 ft | 200 kts | 257° |
| 2026-04-23 01:25 | -22.91368 | -43.73295 | 22319 ft | 201 kts | 257° |
| 2026-04-23 01:25 | -22.91624 | -43.74781 | 22595 ft | 201 kts | 257° |
| 2026-04-23 01:25 | -22.91881 | -43.76274 | 22873 ft | 202 kts | 256° |
| 2026-04-23 01:25 | -22.92139 | -43.77772 | 23145 ft | 202 kts | 256° |
| 2026-04-23 01:26 | -22.92397 | -43.79272 | 23423 ft | 203 kts | 256° |
| 2026-04-23 01:26 | -22.92655 | -43.80778 | 23700 ft | 203 kts | 256° |
| 2026-04-23 01:26 | -22.92915 | -43.82290 | 23928 ft | 204 kts | 256° |
| 2026-04-23 01:26 | -22.93174 | -43.83802 | 24155 ft | 204 kts | 256° |
| 2026-04-23 01:27 | -22.93434 | -43.85317 | 24382 ft | 205 kts | 256° |
| 2026-04-23 01:27 | -22.93694 | -43.86836 | 24604 ft | 205 kts | 256° |
| 2026-04-23 01:27 | -22.93955 | -43.88359 | 24828 ft | 205 kts | 256° |
| 2026-04-23 01:27 | -22.94216 | -43.89883 | 25044 ft | 206 kts | 255° |
| 2026-04-23 01:28 | -22.94389 | -43.90894 | 25196 ft | 206 kts | 256° |
| 2026-04-23 01:28 | -22.94650 | -43.92423 | 25421 ft | 206 kts | 256° |
| 2026-04-23 01:28 | -22.94912 | -43.93958 | 25640 ft | 207 kts | 256° |
| 2026-04-23 01:28 | -22.95175 | -43.95494 | 25858 ft | 207 kts | 256° |
| 2026-04-23 01:29 | -22.95438 | -43.97035 | 26079 ft | 208 kts | 256° |
| 2026-04-23 01:29 | -22.95706 | -43.98604 | 26129 ft | 216 kts | 256° |
| 2026-04-23 01:29 | -22.95986 | -44.00241 | 26137 ft | 225 kts | 256° |
| 2026-04-23 01:29 | -22.96274 | -44.01939 | 26139 ft | 232 kts | 256° |
| 2026-04-23 01:30 | -22.96569 | -44.03680 | 26141 ft | 237 kts | 256° |
| 2026-04-23 01:30 | -22.96871 | -44.05456 | 26148 ft | 241 kts | 257° |
| 2026-04-23 01:30 | -22.97178 | -44.07261 | 26150 ft | 245 kts | 257° |
| 2026-04-23 01:30 | -22.97488 | -44.09089 | 26149 ft | 248 kts | 257° |
| 2026-04-23 01:31 | -22.97802 | -44.10937 | 26151 ft | 250 kts | 257° |
| 2026-04-23 01:31 | -22.98118 | -44.12801 | 26151 ft | 252 kts | 257° |
| 2026-04-23 01:31 | -22.98435 | -44.14671 | 26148 ft | 252 kts | 257° |
| 2026-04-23 01:31 | -22.98753 | -44.16550 | 26152 ft | 253 kts | 257° |
| 2026-04-23 01:32 | -22.99072 | -44.18434 | 26154 ft | 255 kts | 257° |
| 2026-04-23 01:32 | -22.99393 | -44.20330 | 26155 ft | 256 kts | 257° |
| 2026-04-23 01:32 | -22.99714 | -44.22232 | 26153 ft | 256 kts | 257° |
| 2026-04-23 01:32 | -23.00035 | -44.24135 | 26154 ft | 257 kts | 257° |
| 2026-04-23 01:33 | -23.00357 | -44.26041 | 26152 ft | 257 kts | 257° |
| 2026-04-23 01:33 | -23.00678 | -44.27945 | 26149 ft | 256 kts | 257° |
| 2026-04-23 01:33 | -23.00998 | -44.29846 | 26151 ft | 256 kts | 257° |
| 2026-04-23 01:33 | -23.01318 | -44.31745 | 26150 ft | 256 kts | 257° |
| 2026-04-23 01:34 | -23.01638 | -44.33646 | 26153 ft | 256 kts | 257° |
| 2026-04-23 01:34 | -23.01959 | -44.35551 | 26153 ft | 256 kts | 257° |
| 2026-04-23 01:34 | -23.02279 | -44.37454 | 26154 ft | 257 kts | 257° |
| 2026-04-23 01:34 | -23.02599 | -44.39362 | 26155 ft | 257 kts | 257° |
| 2026-04-23 01:35 | -23.02918 | -44.41265 | 26157 ft | 256 kts | 257° |
| 2026-04-23 01:35 | -23.03233 | -44.43145 | 26157 ft | 256 kts | 257° |
| 2026-04-23 01:35 | -23.03552 | -44.45047 | 26155 ft | 256 kts | 257° |
| 2026-04-23 01:35 | -23.03875 | -44.46977 | 26154 ft | 256 kts | 257° |
| 2026-04-23 01:36 | -23.04189 | -44.48856 | 26156 ft | 256 kts | 257° |
| 2026-04-23 01:36 | -23.04507 | -44.50759 | 26156 ft | 256 kts | 257° |
| 2026-04-23 01:36 | -23.04825 | -44.52662 | 26155 ft | 256 kts | 257° |
| 2026-04-23 01:36 | -23.05143 | -44.54565 | 26155 ft | 256 kts | 257° |
| 2026-04-23 01:37 | -23.05460 | -44.56467 | 26159 ft | 256 kts | 257° |
| 2026-04-23 01:37 | -23.05777 | -44.58372 | 26157 ft | 256 kts | 257° |
| 2026-04-23 01:37 | -23.06094 | -44.60273 | 26160 ft | 256 kts | 257° |
| 2026-04-23 01:37 | -23.06411 | -44.62178 | 26159 ft | 256 kts | 257° |
| 2026-04-23 01:38 | -23.06727 | -44.64083 | 26160 ft | 256 kts | 257° |
| 2026-04-23 01:38 | -23.07048 | -44.66013 | 26163 ft | 256 kts | 257° |
| 2026-04-23 01:38 | -23.07364 | -44.67917 | 26161 ft | 256 kts | 257° |
| 2026-04-23 01:38 | -23.07680 | -44.69820 | 26162 ft | 256 kts | 257° |
| 2026-04-23 01:39 | -23.07991 | -44.71698 | 26162 ft | 256 kts | 257° |
| 2026-04-23 01:39 | -23.08306 | -44.73600 | 26163 ft | 256 kts | 257° |
| 2026-04-23 01:39 | -23.08622 | -44.75506 | 26162 ft | 257 kts | 257° |
| 2026-04-23 01:39 | -23.08937 | -44.77415 | 26162 ft | 257 kts | 257° |
| 2026-04-23 01:40 | -23.09252 | -44.79324 | 26167 ft | 257 kts | 257° |
| 2026-04-23 01:40 | -23.09568 | -44.81236 | 26163 ft | 257 kts | 257° |
| 2026-04-23 01:40 | -23.09883 | -44.83145 | 26165 ft | 257 kts | 257° |
| 2026-04-23 01:40 | -23.10198 | -44.85054 | 26164 ft | 257 kts | 257° |
| 2026-04-23 01:41 | -23.10512 | -44.86964 | 26169 ft | 257 kts | 257° |
| 2026-04-23 01:41 | -23.10827 | -44.88874 | 26166 ft | 257 kts | 257° |
| 2026-04-23 01:41 | -23.11142 | -44.90786 | 26168 ft | 257 kts | 257° |
| 2026-04-23 01:41 | -23.11455 | -44.92695 | 26166 ft | 257 kts | 257° |
| 2026-04-23 01:42 | -23.11768 | -44.94603 | 26166 ft | 257 kts | 257° |
| 2026-04-23 01:42 | -23.12081 | -44.96509 | 26163 ft | 256 kts | 257° |
| 2026-04-23 01:42 | -23.12393 | -44.98417 | 26162 ft | 256 kts | 257° |
| 2026-04-23 01:42 | -23.12706 | -45.00322 | 26165 ft | 256 kts | 257° |
| 2026-04-23 01:43 | -23.13018 | -45.02230 | 26164 ft | 257 kts | 257° |
| 2026-04-23 01:43 | -23.13330 | -45.04138 | 26165 ft | 256 kts | 258° |
| 2026-04-23 01:43 | -23.13642 | -45.06048 | 26164 ft | 257 kts | 258° |
| 2026-04-23 01:43 | -23.13954 | -45.07959 | 26163 ft | 257 kts | 258° |
| 2026-04-23 01:44 | -23.14266 | -45.09871 | 26166 ft | 257 kts | 258° |
| 2026-04-23 01:44 | -23.14578 | -45.11781 | 26167 ft | 257 kts | 258° |
| 2026-04-23 01:44 | -23.14889 | -45.13691 | 26166 ft | 257 kts | 258° |
| 2026-04-23 01:44 | -23.15200 | -45.15599 | 26166 ft | 257 kts | 258° |
| 2026-04-23 01:45 | -23.15506 | -45.17484 | 26162 ft | 257 kts | 258° |
| 2026-04-23 01:45 | -23.15817 | -45.19395 | 26162 ft | 257 kts | 258° |
| 2026-04-23 01:45 | -23.16128 | -45.21308 | 26161 ft | 257 kts | 258° |
| 2026-04-23 01:45 | -23.16438 | -45.23220 | 26161 ft | 257 kts | 258° |
| 2026-04-23 01:46 | -23.16747 | -45.25130 | 26161 ft | 257 kts | 258° |
| 2026-04-23 01:46 | -23.17057 | -45.27042 | 26161 ft | 257 kts | 258° |
| 2026-04-23 01:46 | -23.17367 | -45.28956 | 26162 ft | 257 kts | 258° |
| 2026-04-23 01:46 | -23.17677 | -45.30869 | 26161 ft | 257 kts | 258° |
| 2026-04-23 01:47 | -23.17985 | -45.32781 | 26162 ft | 257 kts | 258° |
| 2026-04-23 01:47 | -23.18294 | -45.34696 | 26160 ft | 257 kts | 258° |
| 2026-04-23 01:47 | -23.18603 | -45.36610 | 26159 ft | 257 kts | 258° |
| 2026-04-23 01:47 | -23.18726 | -45.38545 | 26157 ft | 259 kts | 271° |
| 2026-04-23 01:48 | -23.18450 | -45.40487 | 26157 ft | 261 kts | 277° |
| 2026-04-23 01:48 | -23.18101 | -45.42428 | 26156 ft | 261 kts | 276° |
| 2026-04-23 01:48 | -23.17823 | -45.44377 | 26156 ft | 261 kts | 274° |
| 2026-04-23 01:48 | -23.17579 | -45.46325 | 26157 ft | 261 kts | 274° |
| 2026-04-23 01:49 | -23.17320 | -45.48272 | 26132 ft | 259 kts | 275° |
| 2026-04-23 01:49 | -23.17050 | -45.50209 | 25876 ft | 260 kts | 275° |
| 2026-04-23 01:49 | -23.16781 | -45.52154 | 25657 ft | 260 kts | 275° |
| 2026-04-23 01:49 | -23.16516 | -45.54095 | 25443 ft | 259 kts | 275° |
| 2026-04-23 01:50 | -23.16252 | -45.56034 | 25239 ft | 259 kts | 275° |
| 2026-04-23 01:50 | -23.15987 | -45.57964 | 25050 ft | 258 kts | 275° |
| 2026-04-23 01:50 | -23.15724 | -45.59880 | 24965 ft | 253 kts | 275° |
| 2026-04-23 01:50 | -23.15468 | -45.61739 | 24964 ft | 246 kts | 274° |
| 2026-04-23 01:51 | -23.15218 | -45.63559 | 24961 ft | 241 kts | 274° |
| 2026-04-23 01:51 | -23.14974 | -45.65345 | 24957 ft | 237 kts | 274° |
| 2026-04-23 01:51 | -23.14731 | -45.67108 | 24958 ft | 235 kts | 274° |
| 2026-04-23 01:51 | -23.14491 | -45.68852 | 24991 ft | 232 kts | 274° |
| 2026-04-23 01:52 | -23.14253 | -45.70580 | 24992 ft | 231 kts | 274° |
| 2026-04-23 01:52 | -23.14016 | -45.72297 | 24994 ft | 229 kts | 274° |
| 2026-04-23 01:52 | -23.13781 | -45.74005 | 24995 ft | 228 kts | 274° |
| 2026-04-23 01:52 | -23.13546 | -45.75705 | 24997 ft | 227 kts | 274° |
| 2026-04-23 01:53 | -23.13315 | -45.77375 | 24996 ft | 226 kts | 274° |
| 2026-04-23 01:53 | -23.13081 | -45.79063 | 24996 ft | 226 kts | 274° |
| 2026-04-23 01:53 | -23.12848 | -45.80745 | 24997 ft | 223 kts | 274° |
| 2026-04-23 01:53 | -23.12620 | -45.82354 | 24998 ft | 208 kts | 274° |
| 2026-04-23 01:54 | -23.12411 | -45.83842 | 24996 ft | 192 kts | 274° |
| 2026-04-23 01:54 | -23.12219 | -45.85216 | 24910 ft | 182 kts | 273° |
| 2026-04-23 01:54 | -23.12032 | -45.86640 | 24678 ft | 198 kts | 273° |
| 2026-04-23 01:54 | -23.11821 | -45.88191 | 24362 ft | 216 kts | 274° |
| 2026-04-23 01:55 | -23.11588 | -45.89855 | 24040 ft | 229 kts | 274° |
| 2026-04-23 01:55 | -23.11341 | -45.91605 | 23709 ft | 239 kts | 274° |
| 2026-04-23 01:55 | -23.11088 | -45.93413 | 23320 ft | 245 kts | 275° |
| 2026-04-23 01:55 | -23.10830 | -45.95260 | 22940 ft | 250 kts | 275° |
| 2026-04-23 01:56 | -23.10566 | -45.97144 | 22559 ft | 253 kts | 275° |
| 2026-04-23 01:56 | -23.10301 | -45.99038 | 22182 ft | 254 kts | 275° |
| 2026-04-23 01:56 | -23.10035 | -46.00937 | 21811 ft | 256 kts | 275° |
| 2026-04-23 01:56 | -23.09767 | -46.02854 | 21440 ft | 256 kts | 276° |
| 2026-04-23 01:57 | -23.09498 | -46.04765 | 20922 ft | 256 kts | 276° |
| 2026-04-23 01:57 | -23.09229 | -46.06677 | 20307 ft | 257 kts | 276° |
| 2026-04-23 01:57 | -23.08960 | -46.08595 | 19713 ft | 257 kts | 276° |
| 2026-04-23 01:57 | -23.08690 | -46.10514 | 19118 ft | 257 kts | 277° |
| 2026-04-23 01:58 | -23.08421 | -46.12432 | 18542 ft | 257 kts | 277° |
| 2026-04-23 01:58 | -23.08156 | -46.14309 | 17886 ft | 256 kts | 277° |
| 2026-04-23 01:58 | -23.07887 | -46.16221 | 17237 ft | 256 kts | 277° |
| 2026-04-23 01:58 | -23.07618 | -46.18132 | 16595 ft | 256 kts | 277° |
| 2026-04-23 01:59 | -23.07349 | -46.20036 | 15967 ft | 255 kts | 277° |
| 2026-04-23 01:59 | -23.07080 | -46.21938 | 15356 ft | 255 kts | 277° |
| 2026-04-23 01:59 | -23.06812 | -46.23838 | 14751 ft | 255 kts | 277° |
| 2026-04-23 01:59 | -23.06543 | -46.25739 | 14168 ft | 255 kts | 277° |
| 2026-04-23 02:00 | -23.06274 | -46.27638 | 13561 ft | 254 kts | 277° |
| 2026-04-23 02:00 | -23.06009 | -46.29501 | 13127 ft | 245 kts | 277° |
| 2026-04-23 02:00 | -23.05757 | -46.31279 | 12710 ft | 238 kts | 277° |
| 2026-04-23 02:00 | -23.05508 | -46.33033 | 12291 ft | 232 kts | 277° |
| 2026-04-23 02:01 | -23.05262 | -46.34759 | 11866 ft | 225 kts | 277° |
| 2026-04-23 02:01 | -23.05029 | -46.36395 | 11463 ft | 219 kts | 277° |
| 2026-04-23 02:01 | -23.04799 | -46.38011 | 11063 ft | 215 kts | 277° |
| 2026-04-23 02:01 | -23.04572 | -46.39608 | 10662 ft | 212 kts | 277° |
| 2026-04-23 02:02 | -23.04348 | -46.41178 | 10273 ft | 209 kts | 277° |
| 2026-04-23 02:02 | -23.04126 | -46.42734 | 9870 ft | 208 kts | 277° |
| 2026-04-23 02:02 | -23.03907 | -46.44274 | 9439 ft | 206 kts | 277° |
| 2026-04-23 02:02 | -23.03688 | -46.45810 | 9065 ft | 211 kts | 277° |
| 2026-04-23 02:03 | -23.03458 | -46.47457 | 8813 ft | 231 kts | 277° |
| 2026-04-23 02:03 | -23.03204 | -46.49238 | 8622 ft | 244 kts | 278° |
| 2026-04-23 02:03 | -23.02936 | -46.51093 | 8427 ft | 253 kts | 278° |
| 2026-04-23 02:03 | -23.02660 | -46.53002 | 8229 ft | 258 kts | 278° |
| 2026-04-23 02:04 | -23.02383 | -46.54937 | 8040 ft | 260 kts | 278° |
| 2026-04-23 02:04 | -23.02103 | -46.56882 | 7849 ft | 260 kts | 278° |
| 2026-04-23 02:04 | -23.01828 | -46.58790 | 7649 ft | 253 kts | 278° |
| 2026-04-23 02:04 | -23.01565 | -46.60617 | 7465 ft | 248 kts | 278° |
| 2026-04-23 02:05 | -23.01301 | -46.62453 | 7288 ft | 245 kts | 278° |
| 2026-04-23 02:05 | -23.01040 | -46.64266 | 7125 ft | 243 kts | 278° |
| 2026-04-23 02:05 | -23.00780 | -46.66074 | 6979 ft | 240 kts | 278° |
| 2026-04-23 02:05 | -23.00523 | -46.67857 | 6836 ft | 239 kts | 278° |
| 2026-04-23 02:06 | -23.00267 | -46.69634 | 6696 ft | 238 kts | 278° |
| 2026-04-23 02:06 | -23.00011 | -46.71403 | 6554 ft | 237 kts | 278° |
| 2026-04-23 02:06 | -22.99757 | -46.73160 | 6393 ft | 236 kts | 278° |
| 2026-04-23 02:06 | -22.99499 | -46.74938 | 6149 ft | 240 kts | 278° |
| 2026-04-23 02:07 | -22.99239 | -46.76734 | 5903 ft | 242 kts | 279° |
| 2026-04-23 02:07 | -22.98977 | -46.78543 | 5661 ft | 244 kts | 279° |
| 2026-04-23 02:07 | -22.98712 | -46.80363 | 5469 ft | 243 kts | 279° |
| 2026-04-23 02:07 | -22.98454 | -46.82143 | 5467 ft | 235 kts | 279° |
| 2026-04-23 02:08 | -22.98203 | -46.83876 | 5465 ft | 230 kts | 279° |
| 2026-04-23 02:08 | -22.98111 | -46.85583 | 5465 ft | 225 kts | 264° |
| 2026-04-23 02:08 | -22.98517 | -46.87204 | 5469 ft | 222 kts | 245° |
| 2026-04-23 02:08 | -22.99349 | -46.88586 | 5352 ft | 213 kts | 227° |
| 2026-04-23 02:09 | -23.00221 | -46.89789 | 5087 ft | 195 kts | 223° |
| 2026-04-23 02:09 | -23.01223 | -46.90706 | 4732 ft | 189 kts | 215° |
| 2026-04-23 02:09 | -23.02240 | -46.91588 | 4366 ft | 186 kts | 218° |
| 2026-04-23 02:09 | -23.03135 | -46.92461 | 4278 ft | 155 kts | 219° |
| 2026-04-23 02:10 | -23.03871 | -46.93209 | 4273 ft | 139 kts | 220° |
| 2026-04-23 02:10 | -23.04508 | -46.93858 | 4258 ft | 113 kts | 217° |
| 2026-04-23 02:10 | -23.05126 | -46.94297 | 4127 ft | 103 kts | 195° |
| 2026-04-23 02:10 | -23.05785 | -46.94574 | 3995 ft | 101 kts | 194° |
| 2026-04-23 02:11 | -23.06447 | -46.94859 | 3892 ft | 104 kts | 194° |
| 2026-04-23 02:11 | -23.07127 | -46.95152 | 3777 ft | 105 kts | 194° |
| 2026-04-23 02:11 | -23.07796 | -46.95442 | 3775 ft | 104 kts | 193° |
| 2026-04-23 02:11 | -23.08468 | -46.95732 | 3781 ft | 104 kts | 194° |
| 2026-04-23 02:12 | -23.09152 | -46.96027 | 3780 ft | 108 kts | 195° |
| 2026-04-23 02:12 | -23.09869 | -46.96294 | 3817 ft | 108 kts | 189° |
| 2026-04-23 02:12 | -23.10596 | -46.96484 | 3837 ft | 109 kts | 185° |
| 2026-04-23 02:12 | -23.11338 | -46.96547 | 3866 ft | 103 kts | 172° |
| 2026-04-23 02:13 | -23.12035 | -46.96440 | 3860 ft | 106 kts | 170° |
| 2026-04-23 02:13 | -23.12786 | -46.96360 | 3838 ft | 107 kts | 167° |
| 2026-04-23 02:13 | -23.13542 | -46.96237 | 3745 ft | 114 kts | 169° |
| 2026-04-23 02:13 | -23.14319 | -46.96083 | 3421 ft | 112 kts | 161° |
| 2026-04-23 02:14 | -23.15066 | -46.95862 | 3059 ft | 114 kts | 162° |
| 2026-04-23 02:14 | -23.15516 | -46.95656 | 3091 ft | 96 kts | 148° |
| 2026-04-23 02:14 | -23.16349 | -46.95254 | 2888 ft | 101 kts | 152° |
| 2026-04-23 02:14 | -23.17007 | -46.94907 | 2681 ft | 107 kts | 149° |
| 2026-04-23 02:15 | -23.18094 | -46.94385 | 2518 ft | 32 kts | 162° |
| 2026-04-23 02:15 | -23.18113 | -46.94376 | 2521 ft | 3 kts | 105° |
| 2026-04-23 02:15 | -23.18082 | -46.94342 | 2519 ft | 16 kts | 74° |
| 2026-04-23 02:16 | -23.18077 | -46.94285 | 2517 ft | 11 kts | 133° |
| 2026-04-23 02:16 | -23.18204 | -46.94236 | 2518 ft | 27 kts | 156° |
| 2026-04-23 02:16 | -23.18362 | -46.94163 | 2519 ft | 29 kts | 156° |
| 2026-04-23 02:16 | -23.18565 | -46.94067 | 2517 ft | 31 kts | 154° |
| 2026-04-23 02:17 | -23.18606 | -46.94025 | 2517 ft | 7 kts | 95° |
| 2026-04-23 02:17 | -23.18591 | -46.94024 | 2517 ft | 8 kts | 336° |
| 2026-04-23 02:17 | -23.18549 | -46.94048 | 2518 ft | 0 kts | 294° |
| 2026-04-23 02:17 | -23.18376 | -46.94156 | 2519 ft | 29 kts | 156° |
| 2026-04-23 02:18 | -23.18579 | -46.94059 | 2518 ft | 26 kts | 151° |
| 2026-04-23 02:18 | -23.18601 | -46.94036 | 2517 ft | 5 kts | 137° |
| 2026-04-23 02:18 | -23.18587 | -46.94025 | 2517 ft | 8 kts | 335° |
| 2026-04-23 02:18 | -23.18549 | -46.94048 | 2518 ft | 0 kts | 294° |